Startpagina
METAR-TAF:

METAR-TAF

Vliegvelden :

Productieplatform

Hoorn-a, Nederland

breedte: 52-55-05N, lengte: 4-09-01E, hoogte: 41 m

Actueel weer

Dit bericht is 12 minuten geleden gemaakt, om 05:55 UTC
Wind 14 kt uit het westnoordwesten
Temperatuur 4°C
Vochtigheid 60%
Druk 1027 hPa
Zicht 10 km of meer
Verspreide wolken op 2900 ft
Geheel bewolkt op 3200 ft

METAR: EHQE 070555Z AUTO 29014KT 9999 SCT029 OVC032 04/M03 Q1027

Tijdstip: 07:07 (06:07 UTC)


TAF: ontbreekt

Waarnemingen en weersverwachtingen van meer dan 4000 vliegvelden (METAR en TAF).

De beschikbare stations zijn de gele en rode punten op de kaart.

Ga met uw muis naar het station om de naam te zien.

Klik dan om waarnemingen en weersverwachtingen te zien.

kaart wijzigen: klik op de groene knoppen met een zwart kruis om in te zoomen, op de groene knop met een streepje om uit te zoomen of op de groene pijlen voor aangrenzende kaarten.


METAR-TAF: